createdAt,value
2023-03-16T00:02:26.429Z,-0.30
2023-03-16T00:04:58.248Z,-0.31
2023-03-16T00:07:30.149Z,-0.32
2023-03-16T00:10:02.138Z,-0.33
2023-03-16T00:12:34.937Z,-0.36
2023-03-16T00:15:08.088Z,-0.38
2023-03-16T00:17:40.057Z,-0.43
2023-03-16T00:20:14.117Z,-0.48
2023-03-16T00:22:46.099Z,-0.54
2023-03-16T00:25:18.002Z,-0.59
2023-03-16T00:27:49.878Z,-0.62
2023-03-16T00:30:22.908Z,-0.63
2023-03-16T00:32:55.032Z,-0.64
2023-03-16T00:35:27.200Z,-0.66
2023-03-16T00:37:59.067Z,-0.70
2023-03-16T00:40:31.281Z,-0.78
2023-03-16T00:43:03.096Z,-0.87
2023-03-16T00:45:35.048Z,-0.96
2023-03-16T00:48:06.895Z,-1.00
2023-03-16T00:50:38.914Z,-1.01
2023-03-16T00:53:10.891Z,-0.99
2023-03-16T00:55:43.168Z,-0.97
2023-03-16T00:58:15.063Z,-0.96
2023-03-16T01:00:47.384Z,-0.96
2023-03-16T01:03:19.331Z,-0.96
2023-03-16T01:05:51.405Z,-0.97
2023-03-16T01:08:23.244Z,-0.98
2023-03-16T01:10:55.380Z,-1.00
2023-03-16T01:13:27.212Z,-1.02
2023-03-16T01:15:59.035Z,-1.03
2023-03-16T01:18:34.344Z,-1.02
2023-03-16T01:21:07.920Z,-0.99
2023-03-16T01:23:40.381Z,-0.97
2023-03-16T01:26:12.782Z,-0.96
2023-03-16T01:28:44.655Z,-0.96
2023-03-16T01:31:17.349Z,-0.97
2023-03-16T01:33:49.481Z,-1.04
2023-03-16T01:36:25.645Z,-1.09
2023-03-16T01:39:01.618Z,-1.12
2023-03-16T01:41:39.250Z,-1.16
2023-03-16T01:44:14.171Z,-1.16
2023-03-16T01:46:46.631Z,-1.14
2023-03-16T01:49:21.416Z,-1.15
2023-03-16T01:51:56.365Z,-1.20
2023-03-16T01:54:31.500Z,-1.26
2023-03-16T01:57:07.718Z,-1.32
2023-03-16T01:59:43.108Z,-1.38
2023-03-16T02:02:17.062Z,-1.44
2023-03-16T02:04:51.362Z,-1.48
2023-03-16T02:07:27.458Z,-1.49
2023-03-16T02:10:02.549Z,-1.50
2023-03-16T02:12:34.691Z,-1.48
2023-03-16T02:15:08.020Z,-1.52
2023-03-16T02:17:40.776Z,-1.54
2023-03-16T02:20:24.027Z,-1.54
2023-03-16T02:22:56.556Z,-1.55
2023-03-16T02:25:32.754Z,-1.57
2023-03-16T02:28:09.809Z,-1.62
2023-03-16T02:30:45.162Z,-1.64
2023-03-16T02:33:17.570Z,-1.65
2023-03-16T02:35:49.599Z,-1.64
2023-03-16T02:38:21.587Z,-1.64
2023-03-16T02:41:01.487Z,-1.61
2023-03-16T02:43:36.208Z,-1.60
2023-03-16T02:46:35.704Z,-1.59
2023-03-16T02:49:11.204Z,-1.62
2023-03-16T02:51:43.385Z,-1.65
2023-03-16T02:54:15.509Z,-1.68
2023-03-16T02:56:47.410Z,-1.74
2023-03-16T02:59:19.590Z,-1.76
2023-03-16T03:01:51.580Z,-1.76
2023-03-16T03:04:24.595Z,-1.74
2023-03-16T03:07:01.844Z,-1.73
2023-03-16T03:09:34.253Z,-1.73
2023-03-16T03:12:06.840Z,-1.73
2023-03-16T03:14:39.172Z,-1.77
2023-03-16T03:17:13.419Z,-1.82
2023-03-16T03:19:45.702Z,-1.86
2023-03-16T03:22:18.740Z,-1.91
2023-03-16T03:24:51.513Z,-1.93
2023-03-16T03:27:24.669Z,-1.93
2023-03-16T03:29:57.222Z,-1.91
2023-03-16T03:32:29.125Z,-1.89
2023-03-16T03:35:01.324Z,-1.89
2023-03-16T03:37:33.219Z,-1.94
2023-03-16T03:40:06.437Z,-2.04
2023-03-16T03:42:38.528Z,-2.17
2023-03-16T03:45:12.937Z,-2.30
2023-03-16T03:47:45.924Z,-2.38
2023-03-16T03:50:22.465Z,-2.42
2023-03-16T03:53:04.347Z,-2.44
2023-03-16T03:55:37.916Z,-2.42
2023-03-16T03:58:09.845Z,-2.37
2023-03-16T04:00:41.858Z,-2.32
2023-03-16T04:03:14.059Z,-2.27
2023-03-16T04:05:48.685Z,-2.24
2023-03-16T04:08:20.791Z,-2.22
2023-03-16T04:10:53.085Z,-2.21
2023-03-16T04:13:26.082Z,-2.22
2023-03-16T04:16:02.676Z,-2.23
2023-03-16T04:18:39.485Z,-2.30
2023-03-16T04:21:17.391Z,-2.37
2023-03-16T04:23:54.299Z,-2.41
2023-03-16T04:26:29.523Z,-2.40
2023-03-16T04:29:02.534Z,-2.38
2023-03-16T04:31:35.268Z,-2.36
2023-03-16T04:34:07.701Z,-2.32
2023-03-16T04:36:40.079Z,-2.28
2023-03-16T04:39:11.991Z,-2.27
2023-03-16T04:41:43.916Z,-2.30
2023-03-16T04:44:25.911Z,-2.34
2023-03-16T04:46:59.189Z,-2.37
2023-03-16T04:49:32.058Z,-2.39
2023-03-16T04:52:04.740Z,-2.38
2023-03-16T04:54:36.906Z,-2.35
2023-03-16T04:57:09.286Z,-2.36
2023-03-16T04:59:45.737Z,-2.34
2023-03-16T05:02:29.586Z,-2.31
2023-03-16T05:05:04.520Z,-2.29
2023-03-16T05:07:36.998Z,-2.28
2023-03-16T05:10:10.186Z,-2.28
2023-03-16T05:12:43.912Z,-2.25
2023-03-16T05:15:15.842Z,-2.20
2023-03-16T05:17:50.010Z,-2.13
2023-03-16T05:20:22.607Z,-2.06
2023-03-16T05:22:55.931Z,-2.01
2023-03-16T05:25:34.216Z,-1.96
2023-03-16T05:28:08.782Z,-1.92
2023-03-16T05:30:51.812Z,-1.93
2023-03-16T05:33:26.982Z,-1.94
2023-03-16T05:36:04.487Z,-1.91
2023-03-16T05:38:37.110Z,-1.86
2023-03-16T05:41:10.428Z,-1.77
2023-03-16T05:44:01.110Z,-1.71
2023-03-16T05:46:40.371Z,-1.63
2023-03-16T05:49:13.027Z,-1.56
2023-03-16T05:51:45.175Z,-1.50
2023-03-16T05:54:17.638Z,-1.45
2023-03-16T05:56:50.993Z,-1.38
2023-03-16T05:59:22.987Z,-1.29
2023-03-16T06:01:58.342Z,-1.18
2023-03-16T06:04:31.566Z,-1.06
2023-03-16T06:07:04.426Z,-0.94
2023-03-16T06:09:38.022Z,-0.82
2023-03-16T06:12:15.265Z,-0.70
2023-03-16T06:14:47.535Z,-0.64
2023-03-16T06:17:21.583Z,-0.60
2023-03-16T06:19:54.065Z,-0.55
2023-03-16T06:22:26.153Z,-0.49
2023-03-16T06:24:57.968Z,-0.40
2023-03-16T06:27:30.730Z,-0.28
2023-03-16T06:30:16.786Z,-0.12
2023-03-16T06:32:49.138Z,0.04
2023-03-16T06:35:21.150Z,0.16
2023-03-16T06:38:04.315Z,0.25
2023-03-16T06:40:52.129Z,0.38
2023-03-16T06:43:25.689Z,0.76
2023-03-16T06:45:58.981Z,1.47
2023-03-16T06:48:31.315Z,1.92
2023-03-16T06:51:03.338Z,2.37
2023-03-16T06:53:35.663Z,2.76
2023-03-16T06:56:08.608Z,3.10
2023-03-16T06:58:43.238Z,3.23
2023-03-16T07:01:15.081Z,3.33
2023-03-16T07:03:47.104Z,3.41
2023-03-16T07:06:22.816Z,3.40
2023-03-16T07:08:54.750Z,3.40
2023-03-16T07:11:26.775Z,3.36
2023-03-16T07:13:58.759Z,3.32
2023-03-16T07:16:32.116Z,3.26
2023-03-16T07:19:05.969Z,3.20
2023-03-16T07:21:40.123Z,3.29
2023-03-16T07:24:15.298Z,3.68
2023-03-16T07:26:47.679Z,4.21
2023-03-16T07:29:27.870Z,4.68
2023-03-16T07:31:59.962Z,4.99
2023-03-16T07:34:37.798Z,5.34
2023-03-16T07:37:10.021Z,5.59
2023-03-16T07:39:42.101Z,5.64
2023-03-16T07:42:19.900Z,5.54
2023-03-16T07:45:14.458Z,5.51
2023-03-16T07:47:47.037Z,5.39
2023-03-16T07:50:45.061Z,5.23
2023-03-16T07:53:17.505Z,5.15
2023-03-16T07:55:51.774Z,5.14
2023-03-16T07:58:23.733Z,5.11
2023-03-16T08:00:58.990Z,5.02
2023-03-16T08:03:32.044Z,4.99
2023-03-16T08:06:04.583Z,5.02
2023-03-16T08:08:36.448Z,5.08
2023-03-16T08:11:08.582Z,5.16
2023-03-16T08:13:54.473Z,5.20
2023-03-16T08:16:27.520Z,5.21
2023-03-16T08:19:01.325Z,5.28
2023-03-16T08:21:35.129Z,5.38
2023-03-16T08:24:10.991Z,5.47
2023-03-16T08:26:44.039Z,5.56
2023-03-16T08:29:16.220Z,5.64
2023-03-16T08:31:48.183Z,5.70
2023-03-16T08:34:30.315Z,5.75
2023-03-16T08:37:03.179Z,5.74
2023-03-16T08:39:35.733Z,5.67
2023-03-16T08:42:11.715Z,5.64
2023-03-16T08:44:48.818Z,5.59
2023-03-16T08:47:20.609Z,5.56
2023-03-16T08:49:53.048Z,5.58
2023-03-16T08:52:24.942Z,5.63
2023-03-16T08:55:03.283Z,5.68
2023-03-16T08:57:35.944Z,5.69
2023-03-16T09:00:14.250Z,5.72
2023-03-16T09:02:46.995Z,5.81
2023-03-16T09:05:19.325Z,5.89
2023-03-16T09:07:51.629Z,5.93
2023-03-16T09:10:24.141Z,5.94
2023-03-16T09:12:56.966Z,5.97
2023-03-16T09:15:29.908Z,5.98
2023-03-16T09:18:03.859Z,6.00
2023-03-16T09:20:35.957Z,5.99
2023-03-16T09:23:07.988Z,6.01
2023-03-16T09:25:40.017Z,6.07
2023-03-16T09:28:12.562Z,6.14
2023-03-16T09:30:45.535Z,6.24
2023-03-16T09:33:17.749Z,6.34
2023-03-16T09:35:49.759Z,6.36
2023-03-16T09:38:22.305Z,6.30
2023-03-16T09:41:00.693Z,6.25
2023-03-16T09:44:01.533Z,6.24
2023-03-16T09:46:36.290Z,6.34
2023-03-16T09:49:06.773Z,6.33
2023-03-16T09:51:45.602Z,6.34
2023-03-16T09:54:23.568Z,6.45
2023-03-16T09:56:56.941Z,6.63
2023-03-16T09:59:29.137Z,6.73
2023-03-16T10:02:16.016Z,6.79
2023-03-16T10:04:52.528Z,6.92
2023-03-16T10:07:34.954Z,7.01
2023-03-16T10:10:16.194Z,7.19
2023-03-16T10:12:52.602Z,7.40
2023-03-16T10:15:27.360Z,7.59
2023-03-16T10:18:03.107Z,7.64
2023-03-16T10:20:36.662Z,7.67
2023-03-16T10:23:17.092Z,7.65
2023-03-16T10:25:50.550Z,7.59
2023-03-16T10:28:24.367Z,7.47
2023-03-16T10:30:57.891Z,7.38
2023-03-16T10:33:31.668Z,7.40
2023-03-16T10:36:11.869Z,7.54
2023-03-16T10:38:48.364Z,7.52
2023-03-16T10:41:26.737Z,7.52
2023-03-16T10:44:06.304Z,7.64
2023-03-16T10:46:43.024Z,7.79
2023-03-16T10:49:27.188Z,7.88
2023-03-16T10:52:00.625Z,7.78
2023-03-16T10:54:35.338Z,7.68
2023-03-16T10:57:23.762Z,7.70
2023-03-16T10:59:57.724Z,7.84
2023-03-16T11:02:35.782Z,7.86
2023-03-16T11:05:28.620Z,7.74
2023-03-16T11:08:03.927Z,7.59
2023-03-16T11:10:46.152Z,7.39
2023-03-16T11:13:26.455Z,7.18
2023-03-16T11:16:01.762Z,7.01
2023-03-16T11:18:39.857Z,6.93
2023-03-16T11:21:18.262Z,6.94
2023-03-16T11:23:52.888Z,6.97
2023-03-16T11:26:28.884Z,7.04
2023-03-16T11:29:09.342Z,7.08
2023-03-16T11:31:49.332Z,7.28
2023-03-16T11:34:24.102Z,7.42
2023-03-16T11:36:57.910Z,7.48
2023-03-16T11:39:40.472Z,7.43
2023-03-16T11:42:29.905Z,7.39
2023-03-16T11:45:08.093Z,7.26
2023-03-16T11:48:04.215Z,7.11
2023-03-16T11:50:46.171Z,6.93
2023-03-16T11:53:26.050Z,6.76
2023-03-16T11:56:06.652Z,6.64
2023-03-16T11:58:52.317Z,6.53
2023-03-16T12:01:29.710Z,6.49
2023-03-16T12:04:23.216Z,6.59
2023-03-16T12:07:03.019Z,6.79
2023-03-16T12:09:55.952Z,7.03
2023-03-16T12:12:29.879Z,7.23
2023-03-16T12:15:14.535Z,7.29
2023-03-16T12:17:47.035Z,7.34
2023-03-16T12:20:21.385Z,7.31
2023-03-16T12:22:52.184Z,7.38
2023-03-16T12:25:26.033Z,7.35
2023-03-16T12:28:00.435Z,7.28
2023-03-16T12:30:39.713Z,7.20
2023-03-16T12:33:19.115Z,7.13
2023-03-16T12:35:53.479Z,7.12
2023-03-16T12:38:45.817Z,7.07
2023-03-16T12:41:28.281Z,7.03
2023-03-16T12:44:14.332Z,6.97
2023-03-16T12:46:56.168Z,6.90
2023-03-16T12:49:28.841Z,6.83
2023-03-16T12:52:05.857Z,6.80
2023-03-16T12:54:38.052Z,6.80
2023-03-16T12:57:15.768Z,6.80
2023-03-16T12:59:50.628Z,6.78
2023-03-16T13:02:26.488Z,6.82
2023-03-16T13:05:01.268Z,6.89
2023-03-16T13:07:32.185Z,7.00
2023-03-16T13:10:10.777Z,7.08
2023-03-16T13:12:43.448Z,7.16
2023-03-16T13:15:32.377Z,7.21
2023-03-16T13:18:22.347Z,7.25
2023-03-16T13:20:57.107Z,7.31
2023-03-16T13:23:31.129Z,7.29
2023-03-16T13:26:07.011Z,7.32
2023-03-16T13:28:40.194Z,7.34
2023-03-16T13:31:27.065Z,7.35
2023-03-16T13:34:00.510Z,7.32
2023-03-16T13:36:34.067Z,7.28
2023-03-16T13:39:15.260Z,7.25
2023-03-16T13:41:57.511Z,7.18
2023-03-16T13:44:30.624Z,7.10
2023-03-16T13:47:07.489Z,7.04
2023-03-16T13:49:47.340Z,7.00
2023-03-16T13:52:25.663Z,6.95
2023-03-16T13:54:58.722Z,6.92
2023-03-16T13:57:32.270Z,6.88
2023-03-16T14:00:17.187Z,6.90
2023-03-16T14:02:53.601Z,6.93
2023-03-16T14:05:28.430Z,6.94
2023-03-16T14:08:01.487Z,6.94
2023-03-16T14:10:35.880Z,6.95
2023-03-16T14:13:12.093Z,6.96
2023-03-16T14:15:43.946Z,6.97
2023-03-16T14:18:21.544Z,6.97
2023-03-16T14:20:56.476Z,6.94
2023-03-16T14:23:31.722Z,6.94
2023-03-16T14:26:06.500Z,6.93
2023-03-16T14:28:38.543Z,6.92
2023-03-16T14:31:13.664Z,6.92
2023-03-16T14:33:46.115Z,6.88
2023-03-16T14:36:19.114Z,6.86
2023-03-16T14:38:54.468Z,6.84
2023-03-16T14:41:28.055Z,6.85
2023-03-16T14:44:01.567Z,6.85
2023-03-16T14:46:36.157Z,6.84
2023-03-16T14:49:11.097Z,6.82
2023-03-16T14:51:43.435Z,6.77
2023-03-16T14:54:17.751Z,6.75
2023-03-16T14:56:52.914Z,6.73
2023-03-16T14:59:24.795Z,6.72
2023-03-16T15:01:57.146Z,6.72
2023-03-16T15:04:32.205Z,6.66
2023-03-16T15:07:05.933Z,6.59
2023-03-16T15:09:40.086Z,6.53
2023-03-16T15:12:18.043Z,6.48
2023-03-16T15:15:08.123Z,6.40
2023-03-16T15:17:40.099Z,6.35
2023-03-16T15:20:13.950Z,6.31
2023-03-16T15:22:46.793Z,6.22
2023-03-16T15:25:29.740Z,6.25
2023-03-16T15:28:02.294Z,6.23
2023-03-16T15:30:35.250Z,6.22
2023-03-16T15:33:07.515Z,6.22
2023-03-16T15:35:40.019Z,6.22
2023-03-16T15:38:17.954Z,6.21
2023-03-16T15:40:51.426Z,6.17
2023-03-16T15:43:25.072Z,6.14
2023-03-16T15:45:58.866Z,6.12
2023-03-16T15:48:30.815Z,6.11
2023-03-16T15:51:03.877Z,6.10
2023-03-16T15:53:38.532Z,6.08
2023-03-16T15:56:09.635Z,6.06
2023-03-16T15:58:45.537Z,6.02
2023-03-16T16:01:23.717Z,5.98
2023-03-16T16:03:56.553Z,5.88
2023-03-16T16:06:28.706Z,5.79
2023-03-16T16:09:01.121Z,5.74
2023-03-16T16:11:33.356Z,5.67
2023-03-16T16:14:05.640Z,5.58
2023-03-16T16:16:38.375Z,5.50
2023-03-16T16:19:12.520Z,5.41
2023-03-16T16:21:44.827Z,5.34
2023-03-16T16:24:18.270Z,5.25
2023-03-16T16:26:54.659Z,5.20
2023-03-16T16:29:30.258Z,5.12
2023-03-16T16:32:02.227Z,5.03
2023-03-16T16:34:34.990Z,4.96
2023-03-16T16:37:07.657Z,4.89
2023-03-16T16:39:40.561Z,4.81
2023-03-16T16:42:18.304Z,4.73
2023-03-16T16:44:50.321Z,4.63
2023-03-16T16:47:23.039Z,4.53
2023-03-16T16:49:55.042Z,4.44
2023-03-16T16:52:26.985Z,4.33
2023-03-16T16:54:58.893Z,4.21
2023-03-16T16:57:31.788Z,4.11
2023-03-16T17:00:05.191Z,3.92
2023-03-16T17:02:46.871Z,3.86
2023-03-16T17:05:22.459Z,3.72
2023-03-16T17:07:54.531Z,3.60
2023-03-16T17:10:27.195Z,3.46
2023-03-16T17:12:59.349Z,3.36
2023-03-16T17:15:32.922Z,3.24
2023-03-16T17:18:10.577Z,3.12
2023-03-16T17:20:42.749Z,2.99
2023-03-16T17:23:29.749Z,2.89
2023-03-16T17:26:00.490Z,2.79
2023-03-16T17:28:35.953Z,2.68
2023-03-16T17:31:07.919Z,2.57
2023-03-16T17:33:39.991Z,2.47
2023-03-16T17:36:14.567Z,2.39
2023-03-16T17:38:46.556Z,2.31
2023-03-16T17:41:24.269Z,2.22
2023-03-16T17:43:58.350Z,2.12
2023-03-16T17:46:32.579Z,2.03
2023-03-16T17:49:07.641Z,1.93
2023-03-16T17:51:40.498Z,1.85
2023-03-16T17:54:12.500Z,1.78
2023-03-16T17:56:44.517Z,1.72
2023-03-16T17:59:19.020Z,1.66
2023-03-16T18:01:51.162Z,1.58
2023-03-16T18:04:24.828Z,1.52
2023-03-16T18:06:56.952Z,1.47
2023-03-16T18:09:29.154Z,1.43
2023-03-16T18:12:01.256Z,1.43
2023-03-16T18:14:36.546Z,1.43
2023-03-16T18:17:16.874Z,1.44
2023-03-16T18:19:48.954Z,1.42
2023-03-16T18:22:22.133Z,1.39
2023-03-16T18:24:55.269Z,1.34
2023-03-16T18:27:27.263Z,1.30
2023-03-16T18:29:59.130Z,1.26
2023-03-16T18:32:32.030Z,1.22
2023-03-16T18:35:04.258Z,1.18
2023-03-16T18:37:36.821Z,1.10
2023-03-16T18:40:12.740Z,1.02
2023-03-16T18:42:44.605Z,0.94
2023-03-16T18:45:17.647Z,0.85
2023-03-16T18:47:52.750Z,0.74
2023-03-16T18:50:27.767Z,0.65
2023-03-16T18:52:58.338Z,0.57
2023-03-16T18:55:31.098Z,0.51
2023-03-16T18:58:03.144Z,0.48
2023-03-16T19:00:35.378Z,0.47
2023-03-16T19:03:09.225Z,0.46
2023-03-16T19:05:41.110Z,0.48
2023-03-16T19:08:15.568Z,0.49
2023-03-16T19:10:51.574Z,0.51
2023-03-16T19:13:24.633Z,0.48
2023-03-16T19:15:58.353Z,0.45
2023-03-16T19:18:31.372Z,0.40
2023-03-16T19:21:04.006Z,0.33
2023-03-16T19:23:39.157Z,0.25
2023-03-16T19:26:11.648Z,0.14
2023-03-16T19:28:46.009Z,0.06
2023-03-16T19:31:21.549Z,-0.00
2023-03-16T19:33:53.538Z,-0.04
2023-03-16T19:36:27.807Z,-0.05
2023-03-16T19:39:00.288Z,-0.04
2023-03-16T19:41:34.224Z,-0.06
2023-03-16T19:44:09.887Z,-0.09
2023-03-16T19:46:42.489Z,-0.12
2023-03-16T19:49:19.790Z,-0.16
2023-03-16T19:51:52.520Z,-0.19
2023-03-16T19:54:26.284Z,-0.23
2023-03-16T19:56:59.746Z,-0.28
2023-03-16T19:59:34.148Z,-0.30
2023-03-16T20:02:19.835Z,-0.28
2023-03-16T20:04:51.825Z,-0.22
2023-03-16T20:07:24.391Z,-0.15
2023-03-16T20:09:57.314Z,-0.08
2023-03-16T20:12:30.374Z,0.00
2023-03-16T20:15:02.401Z,0.08
2023-03-16T20:17:35.373Z,0.11
2023-03-16T20:20:20.856Z,0.14
2023-03-16T20:22:55.341Z,0.17
2023-03-16T20:25:30.455Z,0.16
2023-03-16T20:28:05.228Z,0.19
2023-03-16T20:30:37.530Z,0.22
2023-03-16T20:33:11.584Z,0.29
2023-03-16T20:35:43.530Z,0.40
2023-03-16T20:38:16.425Z,0.50
2023-03-16T20:40:51.160Z,0.58
2023-03-16T20:43:28.460Z,0.63
2023-03-16T20:46:01.544Z,0.70
2023-03-16T20:48:34.202Z,0.73
2023-03-16T20:51:08.451Z,0.74
2023-03-16T20:53:40.549Z,0.73
2023-03-16T20:56:17.357Z,0.69
2023-03-16T20:58:50.038Z,0.71
2023-03-16T21:01:24.544Z,0.74
2023-03-16T21:03:58.632Z,0.78
2023-03-16T21:06:33.783Z,0.82
2023-03-16T21:09:08.145Z,0.86
2023-03-16T21:11:43.599Z,0.89
2023-03-16T21:14:18.621Z,0.92
2023-03-16T21:16:51.033Z,0.93
2023-03-16T21:19:24.157Z,0.91
2023-03-16T21:21:55.995Z,0.88
2023-03-16T21:24:27.846Z,0.85
2023-03-16T21:26:59.741Z,0.84
2023-03-16T21:29:31.652Z,0.86
2023-03-16T21:32:04.076Z,0.88
2023-03-16T21:34:38.106Z,0.94
2023-03-16T21:37:15.654Z,0.96
2023-03-16T21:39:47.973Z,0.93
2023-03-16T21:42:19.887Z,0.89
2023-03-16T21:44:51.788Z,0.84
2023-03-16T21:47:26.708Z,0.79
2023-03-16T21:49:57.485Z,0.76
2023-03-16T21:52:30.270Z,0.72
2023-03-16T21:55:02.143Z,0.73
2023-03-16T21:57:34.117Z,0.75
2023-03-16T22:00:07.029Z,0.81
2023-03-16T22:02:39.015Z,0.85
2023-03-16T22:05:28.395Z,0.86
2023-03-16T22:08:01.997Z,0.83
2023-03-16T22:10:33.868Z,0.76
2023-03-16T22:13:06.129Z,0.67
2023-03-16T22:15:38.116Z,0.58
2023-03-16T22:18:21.726Z,0.55
2023-03-16T22:20:53.666Z,0.55
2023-03-16T22:23:34.172Z,0.57
2023-03-16T22:26:08.304Z,0.60
2023-03-16T22:28:40.642Z,0.59
2023-03-16T22:31:16.564Z,0.59
2023-03-16T22:33:48.846Z,0.56
2023-03-16T22:36:22.848Z,0.55
2023-03-16T22:38:59.550Z,0.53
2023-03-16T22:41:32.062Z,0.49
2023-03-16T22:44:04.164Z,0.42
2023-03-16T22:46:36.089Z,0.41
2023-03-16T22:49:16.121Z,0.43
2023-03-16T22:51:47.999Z,0.44
2023-03-16T22:54:23.801Z,0.47
2023-03-16T22:56:55.881Z,0.48
2023-03-16T22:59:29.346Z,0.48
2023-03-16T23:02:01.605Z,0.46
2023-03-16T23:04:33.807Z,0.41
2023-03-16T23:07:07.648Z,0.34
2023-03-16T23:09:39.553Z,0.29
2023-03-16T23:12:17.332Z,0.26
2023-03-16T23:14:49.404Z,0.23
2023-03-16T23:17:23.313Z,0.17
2023-03-16T23:19:55.254Z,0.07
2023-03-16T23:22:27.353Z,-0.07
2023-03-16T23:24:59.185Z,-0.13
2023-03-16T23:27:31.181Z,-0.20
2023-03-16T23:30:03.430Z,-0.27
2023-03-16T23:32:35.462Z,-0.34
2023-03-16T23:35:16.628Z,-0.43
2023-03-16T23:37:47.311Z,-0.51
2023-03-16T23:40:19.814Z,-0.54
2023-03-16T23:42:52.542Z,-0.57
2023-03-16T23:45:31.709Z,-0.60
2023-03-16T23:48:06.107Z,-0.60
2023-03-16T23:50:38.853Z,-0.61
2023-03-16T23:53:14.408Z,-0.63
2023-03-16T23:55:46.898Z,-0.69
2023-03-16T23:58:18.935Z,-0.73
